Tuesday, July 25, 2017, 2:38 AM EDT

KPTW, Pottstown Limerick Airport

Location: Royersford, PA, United States Lat: 40.233
Local Time: 2:38 AM EDT ( 6:38 GMT) Lon: -75.55
Time Zone: US/Eastern Elev: 291 ft

Show me the last for .
Show Decoded

2017-07-25 02:11 METAR KPTW 250611Z AUTO 06004KT 1 3/4SM BR OVC002 19/19 A2998 RMK AO2 T01890189
                 =
2017-07-25 02:03 METAR KPTW 250603Z AUTO 06005KT 2 1/2SM BR OVC003 19/19 A2998 RMK AO2 T01890189
                 =
2017-07-25 01:54 METAR KPTW 250554Z AUTO 06006KT 3SM BR OVC003 19/19 A2998 RMK AO2 SLP146 60002
                 T01890189 10206 20189 51021 =
2017-07-25 01:24 METAR KPTW 250524Z AUTO 04005KT 4SM BR BKN003 OVC008 19/19 A2997 RMK AO2
                 T01940194 =
2017-07-25 00:54 METAR KPTW 250454Z AUTO 05005KT 7SM SCT004 OVC009 20/20 A2996 RMK AO2 SLP142
                 T02000200 402940200 =
2017-07-24 23:54 METAR KPTW 250354Z AUTO 00000KT 9SM BKN006 OVC010 21/21 A2996 RMK AO2 SLP139
                 T02060206 =
2017-07-24 23:44 METAR KPTW 250344Z AUTO 10004KT 10SM BKN006 OVC013 21/21 A2995 RMK AO2 T02060206
                 =
2017-07-24 23:21 METAR KPTW 250321Z AUTO 00000KT 9SM SCT006 OVC013 21/21 A2993 RMK AO2 T02060206
                 =
2017-07-24 22:54 METAR KPTW 250254Z AUTO 06003KT 10SM OVC006 21/21 A2991 RMK AO2 CIG 004V009
                 SLP125 60002 T02060206 53018 =
2017-07-24 22:38 METAR KPTW 250238Z AUTO VRB03KT 9SM BKN006 BKN080 21/21 A2991 RMK AO2 T02060206
                 =
2017-07-24 22:15 METAR KPTW 250215Z AUTO 02004KT 9SM FEW006 BKN085 21/21 A2991 RMK AO2 T02060206
                 =
2017-07-24 21:54 METAR KPTW 250154Z AUTO 00000KT 10SM SCT070 OVC090 21/21 A2990 RMK AO2 SLP120
                 T02060206 =
2017-07-24 20:54 METAR KPTW 250054Z AUTO 00000KT 9SM BKN043 BKN070 OVC090 21/21 A2986 RMK AO2 LTG
                 DSNT SE-SW RAE11 TSE2358 SLP107 P0002 T02060206 =
2017-07-24 20:07 METAR KPTW 250007Z AUTO 05003KT 7SM -RA SCT028 BKN050 BKN080 21/21 A2985 RMK AO2
                 LTG DSNT E-SW TSE2358 P0002 T02060206 =
2017-07-24 20:03 METAR KPTW 250003Z AUTO 02003KT 2 1/2SM VCTS -RA BR BKN028 BKN050 OVC110 21/21
                 A2985 RMK AO2 LTG DSNT ALQDS TSE2358 P0002 T02060206 =
2017-07-24 19:58 METAR KPTW 242358Z AUTO 02005KT 1SM VCTS +RA BR BKN028 BKN050 OVC080 21/21 A2985
                 RMK AO2 LTG DSNT ALQDS TSE58 P0002 T02060206 =
2017-07-24 19:54 METAR KPTW 242354Z AUTO 34008KT 300V010 3/4SM +TSRA BR BKN026 BKN045 OVC055
                 20/20 A2986 RMK AO2 LTG DSNT ALQDS RAB21 TSB11 SLP107 P0125 60125 T02000200
                 10294 20200 50015 =
2017-07-24 19:52 METAR KPTW 242352Z AUTO 32007KT 1SM +TSRA BR BKN024 BKN045 OVC055 20/20 A2987
                 RMK AO2 LTG DSNT ALQDS RAB21 TSB11 P0123 =
2017-07-24 19:39 METAR KPTW 242339Z AUTO 05009G21KT 1/2SM +TSRA FG BKN016 BKN047 OVC060 20/20
                 A2987 RMK AO2 LTG DSNT NE AND E RAB21 TSB11 P0107 T02000200 =
2017-07-24 19:28 METAR KPTW 242328Z AUTO 34016G21KT 1/4SM +TSRA FG BKN012 BKN047 OVC075 21/19
                 A2987 RMK AO2 LTG DSNT NW-E RAB21 TSB11 P0076 T02060194 =
2017-07-24 19:22 METAR KPTW 242322Z AUTO 29011G21KT 3/4SM -TSRA FEW022 BKN065 OVC110 24/19 A2988
                 RMK AO2 LTG DSNT NW-E RAB21 TSB11 PRESRR P0017 T02390189 =
2017-07-24 19:17 METAR KPTW 242317Z AUTO VRB05KT 9SM TS FEW050 BKN075 OVC110 27/20 A2985 RMK AO2
                 LTG DSNT W-NE TSB11 PRESRR T02670200 =
2017-07-24 19:10 METAR KPTW 242310Z AUTO 00000KT 9SM VCTS FEW055 SCT075 BKN100 27/20 A2983 RMK
                 AO2 LTG DSNT W-NE T02720200 =
2017-07-24 18:54 METAR KPTW 242254Z AUTO 19004KT 9SM FEW100 27/19 A2981 RMK AO2 LTG DSNT NW-NE
                 SLP090 T02720194 =
2017-07-24 17:54 METAR KPTW 242154Z AUTO 22004KT 10SM SCT047 28/19 A2982 RMK AO2 LTG DSNT N AND
                 NW SLP091 T02830189 =
2017-07-24 16:54 METAR KPTW 242054Z AUTO 23005KT 10SM BKN045 BKN055 29/19 A2981 RMK AO2 SLP089
                 T02890194 57006 =
2017-07-24 15:54 METAR KPTW 241954Z AUTO 10004KT 10SM SCT039 SCT049 BKN060 27/20 A2981 RMK AO2
                 SLP091 T02670200 =
2017-07-24 14:54 METAR KPTW 241854Z AUTO VRB03KT 10SM FEW036 SCT048 28/19 A2982 RMK AO2 SLP094
                 T02780194 =
2017-07-24 13:54 METAR KPTW 241754Z AUTO 00000KT 10SM BKN033 27/21 A2983 RMK AO2 SLP095 60000
                 T02720211 10272 20217 51003 =
2017-07-24 12:54 METAR KPTW 241654Z AUTO VRB04KT 10SM SCT027 BKN035 26/20 A2983 RMK AO2 SLP095
                 T02560200 =
2017-07-24 12:23 METAR KPTW 241623Z AUTO VRB04KT 10SM SCT022 26/21 A2982 RMK AO2 T02560206 =
2017-07-24 12:11 METAR KPTW 241611Z AUTO 03007KT 10SM BKN022 24/21 A2982 RMK AO2 T02440206 =
2017-07-24 11:54 METAR KPTW 241554Z AUTO 31005KT 10SM SCT022 26/21 A2982 RMK AO2 SLP093 T02560211
                 =
2017-07-24 11:51 METAR KPTW 241551Z AUTO 33007KT 10SM BKN021 25/21 A2982 RMK AO2 =
2017-07-24 11:40 METAR KPTW 241540Z AUTO 02007KT 10SM SCT019 25/21 A2982 RMK AO2 T02500211 =
2017-07-24 10:54 METAR KPTW 241454Z AUTO VRB04KT 10SM OVC017 23/21 A2981 RMK AO2 SLP090 60000
                 T02330206 53014 =
2017-07-24 10:36 METAR KPTW 241436Z AUTO 35008KT 10SM BKN015 23/21 A2980 RMK AO2 T02330211 =
2017-07-24 10:16 METAR KPTW 241416Z AUTO 34007KT 10SM BKN013 23/21 A2980 RMK AO2 T02280211 =
2017-07-24 09:54 METAR KPTW 241354Z AUTO 33008KT 10SM SCT012 SCT110 23/21 A2979 RMK AO2 SLP083
                 T02280206 =
2017-07-24 09:29 METAR KPTW 241329Z AUTO 34006KT 10SM SCT008 BKN014 OVC019 22/21 A2978 RMK AO2
                 T02220211 =
2017-07-24 09:20 METAR KPTW 241320Z AUTO 34007KT 10SM BKN008 BKN014 OVC019 22/22 A2978 RMK AO2
                 CIG 005V010 T02170217 =
2017-07-24 09:13 METAR KPTW 241313Z AUTO 29004KT 10SM SCT008 BKN017 OVC023 22/22 A2978 RMK AO2
                 T02170217 =
2017-07-24 08:54 METAR KPTW 241254Z AUTO 27005KT 7SM SCT003 OVC008 22/22 A2977 RMK AO2 RAE02 CIG
                 006V013 SLP077 P0000 T02220217 =
2017-07-24 07:54 METAR KPTW 241154Z AUTO 20005KT 4SM -RA BR OVC004 21/21 A2977 RMK AO2 RAB46
                 SLP076 P0000 60054 70099 T02110211 10211 20200 53007 =
2017-07-24 06:54 METAR KPTW 241054Z AUTO VRB03KT 6SM BR OVC004 21/21 A2976 RMK AO2 CIG 003V006
                 SLP071 T02110211 =
2017-07-24 05:54 METAR KPTW 240954Z AUTO 10004KT 7SM OVC003 21/21 A2974 RMK AO2 SLP066 T02060206
                 =
2017-07-24 04:54 METAR KPTW 240854Z AUTO 09004KT 8SM OVC004 21/21 A2975 RMK AO2 RAE12 SLP069
                 P0000 60054 T02060206 58013 =
2017-07-24 04:12 METAR KPTW 240812Z AUTO VRB03KT 8SM OVC004 20/20 A2977 RMK AO2 RAE12 P0000
                 T02000200 =
2017-07-24 03:54 METAR KPTW 240754Z AUTO 00000KT 3SM -RA BR BKN006 OVC044 20/20 A2977 RMK AO2
                 SLP074 P0017 T02000200 =
2017-07-24 03:48 METAR KPTW 240748Z AUTO 00000KT 2 1/2SM +RA BR BKN006 BKN044 BKN110 20/20 A2976
                 RMK AO2 P0016 =
2017-07-24 03:23 METAR KPTW 240723Z AUTO VRB04KT 6SM -RA BR FEW005 SCT018 BKN090 20/20 A2977 RMK
                 AO2 LTG DSNT SE P0012 T02000200 =
2017-07-24 03:14 METAR KPTW 240714Z AUTO 07005KT 3SM RA BR SCT006 BKN018 OVC090 20/20 A2977 RMK
                 AO2 LTG DSNT SE AND S P0011 T02000200 =
2017-07-24 02:54 METAR KPTW 240654Z AUTO VRB03KT 2SM +RA BR BKN007 BKN010 OVC016 20/20 A2980 RMK
                 AO2 LTG DSNT SE AND S RAB13 SLP085 P0037 T02000200 =

Support USWX by starting your Amazon purchase here.